createdAt,value
2023-08-11T00:00:14.411Z,100960.97
2023-08-11T00:00:46.458Z,100972.22
2023-08-11T00:01:18.710Z,100961.69
2023-08-11T00:01:50.879Z,100978.50
2023-08-11T00:02:22.960Z,100972.50
2023-08-11T00:02:55.038Z,100972.59
2023-08-11T00:03:27.219Z,100971.78
2023-08-11T00:03:59.336Z,100972.59
2023-08-11T00:04:31.542Z,100967.31
2023-08-11T00:05:04.488Z,100973.44
2023-08-11T00:05:38.039Z,100971.66
2023-08-11T00:06:10.344Z,100973.34
2023-08-11T00:06:42.346Z,100969.84
2023-08-11T00:07:14.382Z,100972.50
2023-08-11T00:07:46.490Z,100965.53
2023-08-11T00:08:18.524Z,100971.78
2023-08-11T00:08:50.537Z,100966.72
2023-08-11T00:09:22.664Z,100965.06
2023-08-11T00:09:54.711Z,100967.81
2023-08-11T00:10:26.740Z,100969.72
2023-08-11T00:10:58.822Z,100975.25
2023-08-11T00:11:30.871Z,100970.22
2023-08-11T00:12:03.148Z,100969.53
2023-08-11T00:12:35.250Z,100968.69
2023-08-11T00:13:07.628Z,100969.38
2023-08-11T00:13:41.254Z,100975.50
2023-08-11T00:14:13.335Z,100969.84
2023-08-11T00:14:45.492Z,100970.81
2023-08-11T00:15:17.562Z,100975.97
2023-08-11T00:15:49.738Z,100979.69
2023-08-11T00:16:24.947Z,100978.16
2023-08-11T00:16:56.978Z,100978.50
2023-08-11T00:17:29.080Z,100975.88
2023-08-11T00:18:01.889Z,100984.63
2023-08-11T00:18:34.028Z,100982.09
2023-08-11T00:19:06.057Z,100980.31
2023-08-11T00:19:38.034Z,100972.06
2023-08-11T00:20:10.583Z,100985.25
2023-08-11T00:20:42.856Z,100978.88
2023-08-11T00:21:14.955Z,100976.97
2023-08-11T00:21:47.154Z,100977.91
2023-08-11T00:22:19.292Z,100983.09
2023-08-11T00:22:51.347Z,100981.28
2023-08-11T00:23:23.391Z,100986.41
2023-08-11T00:23:55.497Z,100978.66
2023-08-11T00:24:27.639Z,100987.50
2023-08-11T00:24:59.921Z,100981.41
2023-08-11T00:25:32.057Z,100980.56
2023-08-11T00:26:04.112Z,100979.47
2023-08-11T00:26:36.166Z,100976.72
2023-08-11T00:27:08.563Z,100977.56
2023-08-11T00:27:40.843Z,100979.94
2023-08-11T00:28:12.871Z,100979.81
2023-08-11T00:28:46.341Z,100980.53
2023-08-11T00:29:18.523Z,100981.84
2023-08-11T00:29:51.166Z,100984.47
2023-08-11T00:30:23.179Z,100981.63
2023-08-11T00:30:55.276Z,100985.94
2023-08-11T00:31:27.425Z,100981.69
2023-08-11T00:31:59.493Z,100980.88
2023-08-11T00:32:31.627Z,100983.75
2023-08-11T00:33:03.980Z,100981.84
2023-08-11T00:33:36.060Z,100980.66
2023-08-11T00:34:08.086Z,100989.06
2023-08-11T00:34:40.815Z,100983.16
2023-08-11T00:35:12.913Z,100978.97
2023-08-11T00:35:44.928Z,100978.97
2023-08-11T00:36:16.955Z,100983.41
2023-08-11T00:36:48.994Z,100983.41
2023-08-11T00:37:20.995Z,100982.47
2023-08-11T00:37:53.152Z,100972.13
2023-08-11T00:38:38.097Z,100990.47
2023-08-11T00:39:10.209Z,100981.09
2023-08-11T00:39:42.250Z,100983.75
2023-08-11T00:40:14.727Z,100981.38
2023-08-11T00:40:46.862Z,100974.91
2023-08-11T00:41:18.972Z,100986.06
2023-08-11T00:41:51.100Z,100986.31
2023-08-11T00:42:23.088Z,100987.38
2023-08-11T00:42:55.086Z,100984.28
2023-08-11T00:43:27.133Z,100987.03
2023-08-11T00:44:00.778Z,100979.38
2023-08-11T00:44:33.146Z,100981.88
2023-08-11T00:45:06.479Z,100981.75
2023-08-11T00:45:39.258Z,100980.91
2023-08-11T00:46:13.160Z,100981.88
2023-08-11T00:46:45.537Z,100980.59
2023-08-11T00:47:17.956Z,100970.41
2023-08-11T00:47:50.348Z,100980.00
2023-08-11T00:48:22.456Z,100981.91
2023-08-11T00:48:54.702Z,100974.13
2023-08-11T00:49:27.182Z,100977.56
2023-08-11T00:49:59.598Z,100981.06
2023-08-11T00:50:31.800Z,100976.75
2023-08-11T00:51:04.658Z,100977.13
2023-08-11T00:51:39.373Z,100974.13
2023-08-11T00:52:12.468Z,100979.16
2023-08-11T00:52:45.981Z,100975.56
2023-08-11T00:53:18.049Z,100976.28
2023-08-11T00:53:51.403Z,100970.41
2023-08-11T00:54:24.555Z,100971.38
2023-08-11T00:54:57.784Z,100970.66
2023-08-11T00:55:30.918Z,100976.16
2023-08-11T00:56:04.080Z,100973.53
2023-08-11T00:56:36.807Z,100974.63
2023-08-11T00:57:09.236Z,100979.88
2023-08-11T00:57:41.958Z,100979.03
2023-08-11T00:58:14.735Z,100971.13
2023-08-11T00:58:47.718Z,100985.16
2023-08-11T00:59:22.249Z,100976.53
2023-08-11T00:59:54.422Z,100981.34
2023-08-11T01:00:30.435Z,100980.75
2023-08-11T01:01:02.694Z,100978.47
2023-08-11T01:01:34.812Z,100987.06
2023-08-11T01:02:07.233Z,100995.94
2023-08-11T01:02:40.818Z,100985.63
2023-08-11T01:03:13.294Z,100983.25
2023-08-11T01:03:45.472Z,100981.69
2023-08-11T01:04:17.597Z,100987.91
2023-08-11T01:04:49.683Z,100988.75
2023-08-11T01:05:22.117Z,100979.16
2023-08-11T01:06:04.497Z,100982.66
2023-08-11T01:06:43.516Z,100981.09
2023-08-11T01:07:22.810Z,100979.28
2023-08-11T01:08:07.935Z,100982.75
2023-08-11T01:08:54.058Z,100980.38
2023-08-11T01:09:37.125Z,100981.22
2023-08-11T01:10:21.823Z,100989.72
2023-08-11T01:11:07.551Z,100983.50
2023-08-11T01:11:46.272Z,100982.53
2023-08-11T01:12:27.011Z,100984.19
2023-08-11T01:13:09.271Z,100982.53
2023-08-11T01:13:52.800Z,100985.38
2023-08-11T01:14:43.855Z,100991.50
2023-08-11T01:15:21.172Z,100988.88
2023-08-11T01:15:58.950Z,100988.28
2023-08-11T01:16:34.206Z,100988.50
2023-08-11T01:17:10.976Z,100990.41
2023-08-11T01:17:46.520Z,100983.94
2023-08-11T01:18:20.922Z,100994.13
2023-08-11T01:18:53.693Z,100993.72
2023-08-11T01:19:29.081Z,100985.72
2023-08-11T01:20:02.620Z,100985.38
2023-08-11T01:20:37.042Z,100995.66
2023-08-11T01:21:14.034Z,100993.00
2023-08-11T01:21:49.594Z,100991.56
2023-08-11T01:22:28.224Z,100988.19
2023-08-11T01:23:01.747Z,100992.97
2023-08-11T01:23:38.757Z,100994.88
2023-08-11T01:24:11.410Z,100990.81
2023-08-11T01:24:45.006Z,100986.38
2023-08-11T01:25:17.252Z,100986.38
2023-08-11T01:25:50.035Z,100992.59
2023-08-11T01:26:22.979Z,100980.50
2023-08-11T01:26:55.896Z,100986.13
2023-08-11T01:27:30.203Z,100986.13
2023-08-11T01:28:02.478Z,100979.28
2023-08-11T01:28:35.663Z,100981.78
2023-08-11T01:29:07.825Z,100981.78
2023-08-11T01:29:40.165Z,100985.03
2023-08-11T01:30:13.692Z,100979.41
2023-08-11T01:30:45.849Z,100976.03
2023-08-11T01:31:17.981Z,100980.47
2023-08-11T01:31:50.005Z,100982.03
2023-08-11T01:32:22.028Z,100985.38
2023-08-11T01:32:54.128Z,100983.47
2023-08-11T01:33:26.148Z,100987.91
2023-08-11T01:33:58.253Z,100983.72
2023-08-11T01:34:30.288Z,100985.38
2023-08-11T01:35:05.432Z,100985.28
2023-08-11T01:35:41.938Z,100987.91
2023-08-11T01:36:14.645Z,100990.53
2023-08-11T01:36:46.857Z,100986.13
2023-08-11T01:37:18.905Z,100991.28
2023-08-11T01:37:50.941Z,100990.44
2023-08-11T01:38:22.969Z,100988.66
2023-08-11T01:38:58.639Z,100996.75
2023-08-11T01:39:31.615Z,100996.66
2023-08-11T01:40:04.223Z,100990.63
2023-08-11T01:40:36.315Z,100996.53
2023-08-11T01:41:08.393Z,100995.56
2023-08-11T01:41:40.918Z,100988.66
2023-08-11T01:42:13.536Z,100993.91
2023-08-11T01:42:54.921Z,100990.19
2023-08-11T01:43:30.326Z,100999.66
2023-08-11T01:44:02.792Z,100995.22
2023-08-11T01:44:34.871Z,100990.91
2023-08-11T01:45:09.543Z,100991.13
2023-08-11T01:45:43.449Z,100993.91
2023-08-11T01:46:15.537Z,100992.47
2023-08-11T01:46:48.535Z,100987.91
2023-08-11T01:47:21.613Z,100979.50
2023-08-11T01:47:54.411Z,100988.66
2023-08-11T01:48:28.486Z,100991.88
2023-08-11T01:49:01.758Z,100996.91
2023-08-11T01:49:34.006Z,100985.63
2023-08-11T01:50:08.822Z,100990.09
2023-08-11T01:50:42.515Z,100990.19
2023-08-11T01:51:14.772Z,100988.66
2023-08-11T01:51:46.822Z,100990.53
2023-08-11T01:52:20.381Z,100990.28
2023-08-11T01:52:53.972Z,100987.56
2023-08-11T01:53:26.274Z,100986.63
2023-08-11T01:53:59.811Z,100985.03
2023-08-11T01:54:32.169Z,100989.47
2023-08-11T01:55:05.291Z,100986.13
2023-08-11T01:55:38.046Z,100989.81
2023-08-11T01:56:11.377Z,100991.38
2023-08-11T01:56:44.860Z,100994.00
2023-08-11T01:57:18.776Z,100987.19
2023-08-11T01:57:58.471Z,100988.97
2023-08-11T01:58:32.521Z,100986.34
2023-08-11T01:59:05.768Z,100995.19
2023-08-11T01:59:37.842Z,100983.81
2023-08-11T02:00:11.358Z,100989.09
2023-08-11T02:00:43.477Z,100976.41
2023-08-11T02:01:16.031Z,100992.47
2023-08-11T02:01:48.192Z,100988.97
2023-08-11T02:02:20.301Z,100986.97
2023-08-11T02:02:52.507Z,100990.28
2023-08-11T02:03:24.720Z,100991.13
2023-08-11T02:03:56.881Z,100992.50
2023-08-11T02:04:29.039Z,100992.84
2023-08-11T02:05:01.069Z,100994.41
2023-08-11T02:05:33.117Z,100990.59
2023-08-11T02:06:06.174Z,100989.41
2023-08-11T02:06:39.311Z,100990.25
2023-08-11T02:07:11.363Z,100996.13
2023-08-11T02:07:44.233Z,100986.22
2023-08-11T02:08:16.287Z,100991.25
2023-08-11T02:08:48.366Z,100985.03
2023-08-11T02:09:21.781Z,100988.59
2023-08-11T02:09:53.766Z,100989.31
2023-08-11T02:10:26.009Z,100989.91
2023-08-11T02:10:58.108Z,100996.03
2023-08-11T02:11:30.625Z,100997.38
2023-08-11T02:12:02.712Z,100993.88
2023-08-11T02:12:34.999Z,100996.41
2023-08-11T02:13:07.057Z,100992.78
2023-08-11T02:13:39.056Z,100990.06
2023-08-11T02:14:11.131Z,100994.47
2023-08-11T02:14:43.172Z,100993.53
2023-08-11T02:15:15.216Z,100992.59
2023-08-11T02:15:47.312Z,100995.81
2023-08-11T02:16:19.416Z,100997.38
2023-08-11T02:16:51.613Z,100994.63
2023-08-11T02:17:23.753Z,100992.09
2023-08-11T02:17:56.622Z,100982.41
2023-08-11T02:18:28.728Z,100989.34
2023-08-11T02:19:00.852Z,100984.78
2023-08-11T02:19:32.873Z,100992.59
2023-08-11T02:20:06.077Z,100989.22
2023-08-11T02:20:38.207Z,100983.94
2023-08-11T02:21:10.541Z,100985.28
2023-08-11T02:21:42.594Z,100987.81
2023-08-11T02:22:14.704Z,100988.63
2023-08-11T02:22:46.810Z,100990.06
2023-08-11T02:23:18.923Z,100988.16
2023-08-11T02:23:50.968Z,100980.34
2023-08-11T02:24:24.436Z,100986.72
2023-08-11T02:24:56.463Z,100984.94
2023-08-11T02:25:28.628Z,100983.00
2023-08-11T02:26:00.756Z,100987.31
2023-08-11T02:26:32.933Z,100984.09
2023-08-11T02:27:05.641Z,100984.78
2023-08-11T02:27:37.899Z,100981.34
2023-08-11T02:28:09.904Z,100992.00
2023-08-11T02:28:41.952Z,100980.59
2023-08-11T02:29:17.104Z,100990.19
2023-08-11T02:29:49.185Z,100995.34
2023-08-11T02:30:21.802Z,100987.06
2023-08-11T02:30:53.863Z,100990.66
2023-08-11T02:31:26.104Z,100984.56
2023-08-11T02:31:58.411Z,100995.81
2023-08-11T02:32:30.511Z,100983.00
2023-08-11T02:33:02.591Z,100992.84
2023-08-11T02:33:34.739Z,100990.56
2023-08-11T02:34:06.770Z,100986.13
2023-08-11T02:34:38.841Z,100983.84
2023-08-11T02:35:10.884Z,100990.06
2023-08-11T02:35:42.943Z,100987.44
2023-08-11T02:36:15.283Z,100985.75
2023-08-11T02:36:47.521Z,100986.47
2023-08-11T02:37:19.562Z,100986.38
2023-08-11T02:37:51.819Z,100990.66
2023-08-11T02:38:23.860Z,100987.31
2023-08-11T02:38:56.432Z,100981.81
2023-08-11T02:39:30.593Z,100982.88
2023-08-11T02:40:02.709Z,100984.53
2023-08-11T02:40:34.777Z,100988.03
2023-08-11T02:41:06.843Z,100981.81
2023-08-11T02:41:38.934Z,100985.03
2023-08-11T02:42:10.949Z,100980.72
2023-08-11T02:42:45.510Z,100977.72
2023-08-11T02:43:18.220Z,100982.53
2023-08-11T02:43:50.226Z,100981.09
2023-08-11T02:44:22.393Z,100978.47
2023-08-11T02:44:54.479Z,100986.22
2023-08-11T02:45:26.563Z,100983.94
2023-08-11T02:45:58.646Z,100991.75
2023-08-11T02:46:30.861Z,100984.19
2023-08-11T02:47:02.943Z,100990.19
2023-08-11T02:47:35.071Z,100983.94
2023-08-11T02:48:07.419Z,100985.88
2023-08-11T02:48:39.466Z,100983.94
2023-08-11T02:49:11.551Z,100984.78
2023-08-11T02:49:43.615Z,100990.78
2023-08-11T02:50:15.670Z,100989.22
2023-08-11T02:50:47.783Z,100988.97
2023-08-11T02:51:19.900Z,100985.50
2023-08-11T02:51:51.970Z,100984.69
2023-08-11T02:52:24.084Z,100990.66
2023-08-11T02:52:56.181Z,100992.34
2023-08-11T02:53:28.235Z,100985.50
2023-08-11T02:54:00.276Z,100987.53
2023-08-11T02:54:33.657Z,100992.34
2023-08-11T02:55:07.498Z,100990.56
2023-08-11T02:55:39.514Z,100988.63
2023-08-11T02:56:11.983Z,100985.88
2023-08-11T02:56:47.851Z,100988.50
2023-08-11T02:57:19.976Z,100980.72
2023-08-11T02:57:52.078Z,100992.00
2023-08-11T02:58:24.533Z,100991.84
2023-08-11T02:58:56.592Z,100985.75
2023-08-11T02:59:28.720Z,100993.44
2023-08-11T03:00:01.040Z,100997.13
2023-08-11T03:00:33.303Z,100994.03
2023-08-11T03:01:05.393Z,101001.28
2023-08-11T03:01:37.456Z,100999.81
2023-08-11T03:02:09.947Z,101001.03
2023-08-11T03:02:42.990Z,101000.03
2023-08-11T03:03:15.205Z,100993.44
2023-08-11T03:03:47.315Z,101003.13
2023-08-11T03:04:19.350Z,101000.63
2023-08-11T03:04:51.495Z,100996.88
2023-08-11T03:05:23.616Z,101003.81
2023-08-11T03:05:55.722Z,100999.00
2023-08-11T03:06:27.747Z,100998.38
2023-08-11T03:06:59.875Z,101001.84
2023-08-11T03:07:31.950Z,100994.88
2023-08-11T03:08:04.691Z,101006.50
2023-08-11T03:08:36.706Z,100997.25
2023-08-11T03:09:08.770Z,101000.81
2023-08-11T03:09:42.160Z,101002.97
2023-08-11T03:10:14.463Z,101002.22
2023-08-11T03:10:56.003Z,101000.69
2023-08-11T03:11:29.107Z,101001.56
2023-08-11T03:12:01.275Z,100999.16
2023-08-11T03:12:33.436Z,101009.47
2023-08-11T03:13:05.507Z,100999.28
2023-08-11T03:13:37.584Z,101002.84
2023-08-11T03:14:09.694Z,100998.44
2023-08-11T03:14:41.729Z,100999.69
2023-08-11T03:15:13.871Z,100998.03
2023-08-11T03:15:46.052Z,101007.41
2023-08-11T03:16:18.184Z,101005.47
2023-08-11T03:16:50.237Z,101007.50
2023-08-11T03:17:22.384Z,101002.22
2023-08-11T03:17:54.526Z,101004.97
2023-08-11T03:18:26.622Z,101006.13
2023-08-11T03:18:58.763Z,101005.53
2023-08-11T03:19:30.763Z,100998.69
2023-08-11T03:20:03.075Z,101004.06
2023-08-11T03:20:35.240Z,101001.44
2023-08-11T03:21:18.547Z,101001.56
2023-08-11T03:21:51.694Z,101001.56
2023-08-11T03:22:23.940Z,101005.03
2023-08-11T03:22:55.989Z,100995.56
2023-08-11T03:23:28.044Z,101005.03
2023-08-11T03:24:00.189Z,101002.41
2023-08-11T03:24:32.200Z,101004.28
2023-08-11T03:25:06.448Z,101007.75
2023-08-11T03:25:38.526Z,101008.84
2023-08-11T03:26:10.609Z,101004.38
2023-08-11T03:26:42.654Z,100999.34
2023-08-11T03:27:14.908Z,101011.34
2023-08-11T03:27:46.974Z,101000.94
2023-08-11T03:28:18.969Z,101007.16
2023-08-11T03:28:51.007Z,101006.41
2023-08-11T03:29:23.081Z,101003.06
2023-08-11T03:29:55.136Z,101010.81
2023-08-11T03:30:27.267Z,101008.19
2023-08-11T03:31:00.497Z,101009.16
2023-08-11T03:31:33.347Z,101012.81
2023-08-11T03:32:06.329Z,101007.56
2023-08-11T03:32:38.871Z,101000.84
2023-08-11T03:33:11.166Z,101006.09
2023-08-11T03:33:43.201Z,101005.38
2023-08-11T03:34:15.256Z,101002.13
2023-08-11T03:34:47.708Z,101004.88
2023-08-11T03:35:19.842Z,101005.00
2023-08-11T03:35:51.941Z,101008.44
2023-08-11T03:36:24.045Z,101009.28
2023-08-11T03:36:56.164Z,101005.09
2023-08-11T03:37:29.120Z,101010.13
2023-08-11T03:38:01.354Z,101011.06
2023-08-11T03:38:33.410Z,101010.34
2023-08-11T03:39:05.730Z,101007.81
2023-08-11T03:39:37.754Z,101012.13
2023-08-11T03:40:11.572Z,101012.13
2023-08-11T03:40:43.659Z,101020.84
2023-08-11T03:41:15.880Z,101021.09
2023-08-11T03:41:48.029Z,101016.78
2023-08-11T03:42:20.158Z,101014.84
2023-08-11T03:42:52.276Z,101026.97
2023-08-11T03:43:24.335Z,101012.88
2023-08-11T03:43:56.472Z,101020.75
2023-08-11T03:44:28.645Z,101017.38
2023-08-11T03:45:00.712Z,101018.31
2023-08-11T03:45:32.729Z,101020.84
2023-08-11T03:46:04.738Z,101023.59
2023-08-11T03:46:36.769Z,101021.09
2023-08-11T03:47:08.902Z,101020.34
2023-08-11T03:47:42.197Z,101024.56
2023-08-11T03:48:14.324Z,101027.91
2023-08-11T03:48:49.250Z,101034.00
2023-08-11T03:49:21.677Z,101026.97
2023-08-11T03:49:53.787Z,101027.19
2023-08-11T03:50:25.854Z,101020.25
2023-08-11T03:51:00.118Z,101017.50
2023-08-11T03:51:32.246Z,101023.50
2023-08-11T03:52:04.616Z,101022.66
2023-08-11T03:52:37.903Z,101012.88
2023-08-11T03:53:10.000Z,101020.94
2023-08-11T03:53:42.092Z,101025.13
2023-08-11T03:54:14.426Z,101026.94
2023-08-11T03:54:46.479Z,101019.25
2023-08-11T03:55:20.231Z,101026.94
2023-08-11T03:55:52.342Z,101026.81
2023-08-11T03:56:24.395Z,101020.63
2023-08-11T03:56:56.425Z,101024.19
2023-08-11T03:57:28.493Z,101023.34
2023-08-11T03:58:00.720Z,101021.22
2023-08-11T03:58:36.264Z,101020.16
2023-08-11T03:59:08.353Z,101025.00
2023-08-11T03:59:40.440Z,101021.19
2023-08-11T04:00:13.971Z,101025.38
2023-08-11T04:00:46.436Z,101023.59
2023-08-11T04:01:18.538Z,101027.91
2023-08-11T04:01:50.649Z,101024.97
2023-08-11T04:02:23.089Z,101023.03
2023-08-11T04:02:55.344Z,101026.19
2023-08-11T04:03:27.750Z,101027.66
2023-08-11T04:04:00.374Z,101022.28
2023-08-11T04:04:32.473Z,101024.41
2023-08-11T04:05:04.811Z,101024.78
2023-08-11T04:05:37.396Z,101018.59
2023-08-11T04:06:10.009Z,101025.53
2023-08-11T04:06:42.194Z,101021.94
2023-08-11T04:07:14.246Z,101019.09
2023-08-11T04:07:46.347Z,101019.09
2023-08-11T04:08:18.355Z,101024.13
2023-08-11T04:08:53.598Z,101023.91
2023-08-11T04:09:25.703Z,101024.50
2023-08-11T04:09:58.614Z,101020.00
2023-08-11T04:10:35.175Z,101020.94
2023-08-11T04:11:08.682Z,101020.19
2023-08-11T04:11:40.849Z,101024.66
2023-08-11T04:12:13.003Z,101029.16
2023-08-11T04:12:45.093Z,101031.47
2023-08-11T04:13:17.396Z,101024.06
2023-08-11T04:13:49.949Z,101027.31
2023-08-11T04:14:22.054Z,101029.94
2023-08-11T04:14:54.520Z,101038.78
2023-08-11T04:15:27.813Z,101031.00
2023-08-11T04:16:00.429Z,101030.91
2023-08-11T04:16:34.964Z,101031.75
2023-08-11T04:17:07.079Z,101035.22
2023-08-11T04:17:39.244Z,101036.94
2023-08-11T04:18:14.782Z,101031.75
2023-08-11T04:18:52.586Z,101036.56
2023-08-11T04:19:25.008Z,101036.13
2023-08-11T04:19:57.576Z,101040.22
2023-08-11T04:20:29.974Z,101044.19
2023-08-11T04:21:02.211Z,101049.84
2023-08-11T04:21:34.965Z,101043.38
2023-08-11T04:22:07.557Z,101047.56
2023-08-11T04:22:40.865Z,101044.84
2023-08-11T04:23:12.923Z,101052.00
2023-08-11T04:23:45.723Z,101052.59
2023-08-11T04:24:17.871Z,101057.78
2023-08-11T04:24:50.343Z,101055.03
2023-08-11T04:25:22.600Z,101055.75
2023-08-11T04:25:59.453Z,101054.91
2023-08-11T04:26:31.468Z,101054.78
2023-08-11T04:27:03.938Z,101054.78
2023-08-11T04:27:36.208Z,101053.84
2023-08-11T04:28:08.576Z,101065.22
2023-08-11T04:28:41.061Z,101059.13
2023-08-11T04:29:13.154Z,101054.22
2023-08-11T04:29:45.272Z,101062.03
2023-08-11T04:30:17.382Z,101061.03
2023-08-11T04:30:49.631Z,101063.47
2023-08-11T04:31:21.978Z,101065.25
2023-08-11T04:31:54.150Z,101057.81
2023-08-11T04:32:26.580Z,101064.06
2023-08-11T04:32:58.937Z,101065.84
2023-08-11T04:33:31.325Z,101062.38
2023-08-11T04:34:03.822Z,101065.72
2023-08-11T04:34:36.022Z,101060.34
2023-08-11T04:35:08.708Z,101059.41
2023-08-11T04:35:40.965Z,101067.91
2023-08-11T04:36:13.120Z,101065.53
2023-08-11T04:36:45.195Z,101069.69
2023-08-11T04:37:19.154Z,101065.28
2023-08-11T04:37:54.559Z,101064.94
2023-08-11T04:38:26.659Z,101061.09
2023-08-11T04:38:58.905Z,101077.63
2023-08-11T04:39:31.429Z,101073.94
2023-08-11T04:40:04.614Z,101070.31
2023-08-11T04:40:36.829Z,101072.25
2023-08-11T04:41:10.340Z,101071.31
2023-08-11T04:41:42.680Z,101070.22
2023-08-11T04:42:14.920Z,101064.09
2023-08-11T04:42:47.443Z,101068.31
2023-08-11T04:43:20.181Z,101060.16
2023-08-11T04:43:52.429Z,101071.06
2023-08-11T04:44:24.467Z,101077.88
2023-08-11T04:44:56.495Z,101067.25
2023-08-11T04:45:28.626Z,101069.03
2023-08-11T04:46:00.739Z,101065.34
2023-08-11T04:46:33.332Z,101065.44
2023-08-11T04:47:05.690Z,101074.91
2023-08-11T04:47:38.144Z,101072.06
2023-08-11T04:48:10.396Z,101070.97
2023-08-11T04:48:42.507Z,101069.19
2023-08-11T04:49:14.650Z,101075.88
2023-08-11T04:49:46.690Z,101076.72
2023-08-11T04:50:18.949Z,101078.28
2023-08-11T04:50:51.688Z,101082.72
2023-08-11T04:51:24.095Z,101082.34
2023-08-11T04:51:56.143Z,101076.97
2023-08-11T04:52:28.201Z,101075.03
2023-08-11T04:53:00.718Z,101079.22
2023-08-11T04:53:32.967Z,101079.97
2023-08-11T04:54:05.520Z,101085.13
2023-08-11T04:54:37.594Z,101082.25
2023-08-11T04:55:10.446Z,101089.06
2023-08-11T04:55:42.827Z,101085.38
2023-08-11T04:56:16.228Z,101083.31
2023-08-11T04:56:48.290Z,101086.66
2023-08-11T04:57:20.873Z,101088.25
2023-08-11T04:57:53.105Z,101088.00
2023-08-11T04:58:25.567Z,101081.88
2023-08-11T04:58:57.621Z,101087.84
2023-08-11T04:59:29.643Z,101087.84
2023-08-11T05:00:03.423Z,101089.19
2023-08-11T05:00:37.497Z,101085.38
2023-08-11T05:01:09.986Z,101086.69
2023-08-11T05:01:42.067Z,101080.31
2023-08-11T05:02:14.589Z,101080.91
2023-08-11T05:02:47.820Z,101084.41
2023-08-11T05:03:20.130Z,101080.81
2023-08-11T05:03:52.401Z,101088.59
2023-08-11T05:04:24.533Z,101084.75
2023-08-11T05:04:56.894Z,101085.47
2023-08-11T05:05:29.019Z,101088.09
2023-08-11T05:06:01.058Z,101089.91
2023-08-11T05:06:33.195Z,101090.75
2023-08-11T05:07:05.775Z,101087.97
2023-08-11T05:07:38.336Z,101095.66
2023-08-11T05:08:10.376Z,101087.75
2023-08-11T05:08:42.425Z,101090.81
2023-08-11T05:09:14.481Z,101095.41
2023-08-11T05:09:46.535Z,101096.94
2023-08-11T05:10:21.413Z,101101.16
2023-08-11T05:10:53.727Z,101099.34
2023-08-11T05:11:29.734Z,101096.59
2023-08-11T05:12:02.239Z,101101.63
2023-08-11T05:12:34.764Z,101099.56
2023-08-11T05:13:06.781Z,101099.34
2023-08-11T05:13:38.863Z,101106.28
2023-08-11T05:14:11.025Z,101107.25
2023-08-11T05:14:43.335Z,101095.84
2023-08-11T05:15:15.473Z,101104.47
2023-08-11T05:15:47.571Z,101101.84
2023-08-11T05:16:19.685Z,101108.53
2023-08-11T05:16:51.837Z,101098.56
2023-08-11T05:17:24.098Z,101102.78
2023-08-11T05:17:56.347Z,101100.84
2023-08-11T05:18:37.862Z,101100.72
2023-08-11T05:19:14.083Z,101099.75
2023-08-11T05:19:46.244Z,101102.16
2023-08-11T05:20:18.410Z,101107.28
2023-08-11T05:20:50.487Z,101102.84
2023-08-11T05:21:22.545Z,101110.53
2023-08-11T05:21:55.115Z,101102.47
2023-08-11T05:22:27.469Z,101098.63
2023-08-11T05:23:01.470Z,101102.81
2023-08-11T05:23:34.087Z,101100.88
2023-08-11T05:24:07.531Z,101104.25
2023-08-11T05:24:40.001Z,101106.50
2023-08-11T05:25:12.233Z,101109.59
2023-08-11T05:25:44.288Z,101108.50
2023-08-11T05:26:16.316Z,101105.63
2023-08-11T05:26:50.571Z,101109.81
2023-08-11T05:27:22.886Z,101114.81
2023-08-11T05:27:55.128Z,101105.81
2023-08-11T05:28:27.435Z,101106.41
2023-08-11T05:29:00.496Z,101111.31
2023-08-11T05:29:33.701Z,101109.34
2023-08-11T05:30:08.145Z,101112.47
2023-08-11T05:30:41.064Z,101106.78
2023-08-11T05:31:13.297Z,101109.06
2023-08-11T05:31:45.608Z,101112.28
2023-08-11T05:32:18.393Z,101105.03
2023-08-11T05:32:50.546Z,101112.72
2023-08-11T05:33:22.891Z,101113.47
2023-08-11T05:33:55.968Z,101105.13
2023-08-11T05:34:28.517Z,101112.53
2023-08-11T05:35:00.837Z,101110.91
2023-08-11T05:35:33.034Z,101100.91
2023-08-11T05:36:05.866Z,101103.16
2023-08-11T05:36:38.325Z,101107.09
2023-08-11T05:37:10.654Z,101101.53
2023-08-11T05:37:42.892Z,101105.88
2023-08-11T05:38:14.978Z,101107.41
2023-08-11T05:38:47.115Z,101099.34
2023-08-11T05:39:19.137Z,101101.72
2023-08-11T05:39:51.497Z,101102.16
2023-08-11T05:40:23.710Z,101097.44
2023-08-11T05:40:55.789Z,101103.84
2023-08-11T05:41:27.836Z,101097.59
2023-08-11T05:42:01.289Z,101097.19
2023-08-11T05:42:33.367Z,101095.97
2023-08-11T05:43:05.499Z,101101.09
2023-08-11T05:43:37.784Z,101103.47
2023-08-11T05:44:09.858Z,101097.50
2023-08-11T05:44:41.921Z,101098.34
2023-08-11T05:45:16.951Z,101097.25
2023-08-11T05:45:50.269Z,101096.00
2023-08-11T05:46:22.485Z,101101.69
2023-08-11T05:46:54.568Z,101103.38
2023-08-11T05:47:26.723Z,101102.97
2023-08-11T05:47:58.801Z,101093.50
2023-08-11T05:48:30.914Z,101101.72
2023-08-11T05:49:03.046Z,101105.34
2023-08-11T05:49:35.078Z,101099.50
2023-08-11T05:50:08.235Z,101103.56
2023-08-11T05:50:45.379Z,101099.09
2023-08-11T05:51:17.448Z,101106.50
2023-08-11T05:51:49.503Z,101103.72
2023-08-11T05:52:21.581Z,101101.66
2023-08-11T05:52:53.635Z,101102.91
2023-08-11T05:53:25.896Z,101098.19
2023-08-11T05:53:58.111Z,101100.53
2023-08-11T05:54:30.162Z,101103.88
2023-08-11T05:55:02.336Z,101102.91
2023-08-11T05:55:34.440Z,101108.09
2023-08-11T05:56:06.564Z,101104.19
2023-08-11T05:56:38.838Z,101105.56
2023-08-11T05:57:12.453Z,101109.47
2023-08-11T05:57:44.642Z,101101.38
2023-08-11T05:58:16.751Z,101110.72
2023-08-11T05:58:48.828Z,101105.25
2023-08-11T05:59:21.039Z,101108.34
2023-08-11T05:59:53.131Z,101107.50
2023-08-11T06:00:25.424Z,101106.78
2023-08-11T06:00:57.619Z,101105.53
2023-08-11T06:01:29.670Z,101111.69
2023-08-11T06:02:01.782Z,101107.75
2023-08-11T06:02:33.957Z,101113.63
2023-08-11T06:03:06.121Z,101110.25
2023-08-11T06:03:38.297Z,101110.53
2023-08-11T06:04:10.434Z,101111.94
2023-08-11T06:04:42.818Z,101114.00
2023-08-11T06:05:14.885Z,101109.94
2023-08-11T06:05:46.935Z,101111.03
2023-08-11T06:06:19.077Z,101102.34
2023-08-11T06:06:51.066Z,101105.25
2023-08-11T06:07:23.092Z,101106.38
2023-08-11T06:08:05.269Z,101108.50
2023-08-11T06:08:38.393Z,101104.38
2023-08-11T06:09:10.655Z,101105.88
2023-08-11T06:09:42.743Z,101100.13
2023-08-11T06:10:15.020Z,101104.94
2023-08-11T06:10:47.014Z,101112.56
2023-08-11T06:11:19.147Z,101108.50
2023-08-11T06:11:51.265Z,101115.03
2023-08-11T06:12:25.506Z,101109.78
2023-08-11T06:12:57.909Z,101106.84
2023-08-11T06:13:29.966Z,101106.31
2023-08-11T06:14:02.051Z,101111.03
2023-08-11T06:14:34.131Z,101109.06
2023-08-11T06:15:06.928Z,101108.16